Time;durP1;ratioP1;P1;durP2;ratioP2;P2;SDS_P1;SDS_P2;PMS_P1;PMS_P2;Temp;Humidity;BMP_temperature;BMP_pressure;BME280_temperature;BME280_humidity;BME280_pressure;Samples;Min_cycle;Max_cycle;Signal;HPM_P1;HPM_P2
2022/08/30 00:01:33;;;;;;;7.15;4.43;;;16.00;99.90;;;;;;5064416;28;20047;-72
2022/08/30 00:03:59;;;;;;;4.97;3.90;;;16.10;99.90;;;;;;5070708;28;20052;-72
2022/08/30 00:06:27;;;;;;;3.42;3.05;;;15.90;99.90;;;;;;5073067;28;20198;-72
2022/08/30 00:08:54;;;;;;;2.75;2.55;;;15.90;99.90;;;;;;5069719;28;20076;-72
2022/08/30 00:11:24;;;;;;;5.00;3.15;;;15.80;99.90;;;;;;5065154;28;20033;-72
2022/08/30 00:13:51;;;;;;;4.03;2.85;;;15.70;99.90;;;;;;5073544;28;20162;-73
2022/08/30 00:16:19;;;;;;;3.25;2.95;;;16.00;99.90;;;;;;5072367;28;20044;-72
2022/08/30 00:18:44;;;;;;;3.63;2.60;;;16.90;99.90;;;;;;5069276;28;20547;-72
2022/08/30 00:21:10;;;;;;;2.97;2.60;;;16.60;99.90;;;;;;5073015;28;21084;-72
2022/08/30 00:23:37;;;;;;;3.63;2.47;;;15.80;99.90;;;;;;5067316;28;20071;-72
2022/08/30 00:26:04;;;;;;;2.85;2.47;;;15.80;99.90;;;;;;5070254;28;20070;-72
2022/08/30 00:28:31;;;;;;;5.00;3.00;;;15.80;99.90;;;;;;5072581;28;20057;-72
2022/08/30 00:30:56;;;;;;;5.85;3.10;;;15.70;99.90;;;;;;5054425;28;20102;-72
2022/08/30 00:33:22;;;;;;;3.63;2.85;;;15.60;99.90;;;;;;5073117;28;20045;-73
2022/08/30 00:35:49;;;;;;;4.75;2.78;;;15.50;99.90;;;;;;5072660;28;20040;-72
2022/08/30 00:38:14;;;;;;;4.05;3.30;;;15.50;99.90;;;;;;5072067;28;20154;-71
2022/08/30 00:40:43;;;;;;;3.55;3.25;;;15.40;99.90;;;;;;5073069;28;20064;-72
2022/08/30 00:43:13;;;;;;;4.38;3.72;;;15.50;99.90;;;;;;5072876;28;20037;-72
2022/08/30 00:45:39;;;;;;;4.63;3.65;;;16.20;99.90;;;;;;5072137;28;20079;-72
2022/08/30 00:48:06;;;;;;;7.13;3.83;;;15.40;99.90;;;;;;5072952;28;20072;-72
2022/08/30 00:50:40;;;;;;;4.40;3.13;;;15.30;99.90;;;;;;5071621;28;20614;-72
2022/08/30 00:53:12;;;;;;;2.92;2.72;;;15.30;99.90;;;;;;5070953;28;20438;-73
2022/08/30 00:55:39;;;;;;;4.28;3.63;;;15.30;99.90;;;;;;5072586;28;20075;-72
2022/08/30 00:58:09;;;;;;;3.38;3.17;;;15.30;99.90;;;;;;5053989;28;20124;-73
2022/08/30 01:00:35;;;;;;;3.42;3.10;;;15.30;99.90;;;;;;5054532;28;20484;-72
2022/08/30 01:03:01;;;;;;;3.45;3.15;;;15.30;99.90;;;;;;5072493;28;20131;-72
2022/08/30 01:05:27;;;;;;;3.97;3.40;;;15.30;99.90;;;;;;5069725;28;20455;-72
2022/08/30 01:07:52;;;;;;;5.63;3.72;;;15.90;99.90;;;;;;5070220;28;20040;-72
2022/08/30 01:10:18;;;;;;;4.13;3.72;;;15.80;99.90;;;;;;5063970;28;20086;-72
2022/08/30 01:12:45;;;;;;;3.72;3.42;;;15.20;99.90;;;;;;5071466;28;20120;-72
2022/08/30 01:15:13;;;;;;;5.68;3.25;;;15.20;99.90;;;;;;5072074;28;20052;-72
2022/08/30 01:17:43;;;;;;;3.85;3.13;;;15.20;99.90;;;;;;5072107;28;20337;-72
2022/08/30 01:20:32;;;;;;;3.53;2.80;;;15.20;99.90;;;;;;5066820;28;20463;-72
2022/08/30 01:23:24;;;;;;;3.10;2.88;;;15.80;99.90;;;;;;5068304;28;20429;-72
2022/08/30 01:25:53;;;;;;;3.75;2.75;;;15.20;99.90;;;;;;5064332;28;20052;-72
2022/08/30 01:28:26;;;;;;;3.83;3.00;;;15.20;99.90;;;;;;5070227;28;20045;-72
2022/08/30 01:30:52;;;;;;;3.50;3.08;;;15.40;99.90;;;;;;5072303;28;20048;-72
2022/08/30 01:33:18;;;;;;;3.95;3.30;;;15.30;99.90;;;;;;5070959;28;20048;-72
2022/08/30 01:35:52;;;;;;;3.50;2.90;;;15.30;99.90;;;;;;5072126;28;20361;-72
2022/08/30 01:38:21;;;;;;;3.70;3.00;;;15.40;99.90;;;;;;5070189;28;20350;-72
2022/08/30 01:40:47;;;;;;;5.18;2.90;;;16.10;99.90;;;;;;5071430;28;20045;-71
2022/08/30 01:43:14;;;;;;;3.28;2.72;;;15.30;99.90;;;;;;5071208;28;20052;-72
2022/08/30 01:45:40;;;;;;;3.42;3.13;;;15.30;99.90;;;;;;5071564;28;20404;-72
2022/08/30 01:48:06;;;;;;;2.70;2.45;;;15.30;99.90;;;;;;5070653;28;20044;-71
2022/08/30 01:50:31;;;;;;;4.28;2.75;;;15.40;99.90;;;;;;5071593;28;20561;-72
2022/08/30 01:52:57;;;;;;;2.90;2.67;;;15.40;99.90;;;;;;5070354;28;20504;-72
2022/08/30 01:55:23;;;;;;;3.88;2.58;;;15.50;99.90;;;;;;5068987;28;20496;-71
2022/08/30 01:57:49;;;;;;;2.38;2.20;;;15.40;99.90;;;;;;5070256;28;20071;-72
2022/08/30 02:00:15;;;;;;;2.63;2.42;;;15.40;99.90;;;;;;5069839;28;20729;-71
2022/08/30 02:02:42;;;;;;;7.72;2.35;;;15.40;99.90;;;;;;5070543;28;20033;-71
2022/08/30 02:05:08;;;;;;;2.85;2.30;;;15.70;99.90;;;;;;5070952;28;20131;-72
2022/08/30 02:07:34;;;;;;;5.13;2.20;;;15.40;99.90;;;;;;5071521;28;20083;-71
2022/08/30 02:10:00;;;;;;;2.35;2.15;;;15.40;99.90;;;;;;5069239;28;20471;-72
2022/08/30 02:12:25;;;;;;;5.05;2.80;;;15.40;99.90;;;;;;5070859;28;20044;-72
2022/08/30 02:14:51;;;;;;;2.50;2.30;;;15.40;99.90;;;;;;5070130;28;20052;-72
2022/08/30 02:17:18;;;;;;;4.22;2.83;;;15.40;99.90;;;;;;5071037;28;20041;-72
2022/08/30 02:19:44;;;;;;;2.50;2.30;;;15.40;99.90;;;;;;5070033;28;20036;-72
2022/08/30 02:22:10;;;;;;;2.15;2.05;;;15.40;99.90;;;;;;5070217;28;20047;-71
2022/08/30 02:24:36;;;;;;;2.63;2.40;;;15.30;99.90;;;;;;5065160;28;20059;-72
2022/08/30 02:27:02;;;;;;;2.67;2.47;;;15.40;99.90;;;;;;5068921;28;20040;-72
2022/08/30 02:29:28;;;;;;;2.67;2.25;;;15.40;99.90;;;;;;5068202;28;20049;-72
2022/08/30 02:31:54;;;;;;;3.88;2.00;;;15.40;99.90;;;;;;5069276;28;20119;-72
2022/08/30 02:34:20;;;;;;;2.33;2.10;;;15.80;99.90;;;;;;5070295;28;20128;-71
2022/08/30 02:36:45;;;;;;;2.13;1.73;;;15.70;99.90;;;;;;5069765;28;20048;-73
2022/08/30 02:39:14;;;;;;;4.60;2.58;;;16.20;99.90;;;;;;5070621;28;20045;-71
2022/08/30 02:41:41;;;;;;;2.38;2.17;;;15.40;99.90;;;;;;5069557;28;20049;-71
2022/08/30 02:44:07;;;;;;;4.85;2.75;;;15.40;99.90;;;;;;5069600;28;20040;-71
2022/08/30 02:46:34;;;;;;;2.78;2.58;;;15.40;99.90;;;;;;5070437;28;20127;-71
2022/08/30 02:49:00;;;;;;;2.90;2.35;;;15.30;99.90;;;;;;5070124;28;20565;-72
2022/08/30 02:51:26;;;;;;;2.97;2.67;;;15.30;99.90;;;;;;5069327;28;20454;-72
2022/08/30 02:53:51;;;;;;;4.32;2.25;;;15.30;99.90;;;;;;5070334;28;20047;-71
2022/08/30 02:56:17;;;;;;;2.30;2.20;;;15.20;99.90;;;;;;5069701;28;20033;-72
2022/08/30 02:58:43;;;;;;;2.33;2.08;;;15.30;99.90;;;;;;5069622;28;20088;-72
2022/08/30 03:01:14;;;;;;;2.55;2.28;;;15.20;99.90;;;;;;5070078;28;20040;-72
2022/08/30 03:03:41;;;;;;;2.47;2.17;;;15.60;99.90;;;;;;5066156;28;20055;-72
2022/08/30 03:06:09;;;;;;;4.40;2.33;;;15.20;99.90;;;;;;5069169;28;20046;-72
2022/08/30 03:08:35;;;;;;;2.40;2.20;;;15.10;99.90;;;;;;5066020;28;20487;-72
2022/08/30 03:11:01;;;;;;;3.53;2.22;;;15.10;99.90;;;;;;5069794;28;20086;-72
2022/08/30 03:13:27;;;;;;;2.50;2.15;;;15.10;99.90;;;;;;5065247;28;20072;-72
2022/08/30 03:15:53;;;;;;;3.33;2.20;;;15.20;99.90;;;;;;5070052;28;20051;-72
2022/08/30 03:18:19;;;;;;;2.85;2.13;;;15.10;99.90;;;;;;5069114;28;20036;-72
2022/08/30 03:20:46;;;;;;;3.40;2.50;;;15.10;99.90;;;;;;5068781;28;20063;-72
2022/08/30 03:23:12;;;;;;;2.70;2.20;;;15.10;99.90;;;;;;5069705;28;20404;-72
2022/08/30 03:25:38;;;;;;;3.50;2.63;;;15.10;99.90;;;;;;5066129;28;20389;-72
2022/08/30 03:28:04;;;;;;;3.20;2.53;;;15.10;99.90;;;;;;5068570;28;20052;-72
2022/08/30 03:30:30;;;;;;;2.38;2.17;;;15.10;99.90;;;;;;5069600;28;20044;-72
2022/08/30 03:32:56;;;;;;;3.90;2.20;;;15.10;99.90;;;;;;5069385;28;20041;-72
2022/08/30 03:35:22;;;;;;;3.78;2.17;;;15.10;99.90;;;;;;5068073;28;20044;-72
2022/08/30 03:37:48;;;;;;;2.65;2.00;;;15.10;99.90;;;;;;5070192;28;20103;-72
2022/08/30 03:40:16;;;;;;;2.35;2.15;;;15.00;99.90;;;;;;5068924;28;20055;-72
2022/08/30 03:42:42;;;;;;;3.35;3.05;;;15.70;99.90;;;;;;5070228;28;20043;-72
2022/08/30 03:45:08;;;;;;;7.00;2.85;;;15.00;99.90;;;;;;5068125;28;20064;-72
2022/08/30 03:47:35;;;;;;;2.50;2.28;;;14.90;99.90;;;;;;5069092;28;20081;-72
2022/08/30 03:50:01;;;;;;;2.15;2.00;;;14.90;99.90;;;;;;5070027;28;20043;-72
2022/08/30 03:52:27;;;;;;;3.00;2.03;;;14.80;99.90;;;;;;5069591;28;20387;-72
2022/08/30 03:54:52;;;;;;;2.40;2.20;;;14.80;99.90;;;;;;5068997;28;20041;-72
2022/08/30 03:57:18;;;;;;;2.70;2.20;;;14.80;99.90;;;;;;5069557;28;20369;-72
2022/08/30 03:59:44;;;;;;;2.75;2.13;;;15.10;99.90;;;;;;5069646;28;20098;-71
2022/08/30 04:02:10;;;;;;;1.92;1.77;;;14.70;99.90;;;;;;5068920;28;20112;-72
2022/08/30 04:04:35;;;;;;;3.13;2.30;;;14.80;99.90;;;;;;5069512;28;20040;-73
2022/08/30 04:07:01;;;;;;;2.92;2.13;;;14.60;99.90;;;;;;5069873;28;20036;-72
2022/08/30 04:09:27;;;;;;;3.30;2.70;;;15.40;99.90;;;;;;5068657;28;20136;-72
2022/08/30 04:11:53;;;;;;;2.60;2.25;;;14.60;99.90;;;;;;5069993;28;20033;-72
2022/08/30 04:14:18;;;;;;;2.70;2.25;;;14.60;99.90;;;;;;5067273;28;20231;-71
2022/08/30 04:16:44;;;;;;;1.90;1.80;;;14.60;99.90;;;;;;5069273;28;20044;-72
2022/08/30 04:19:10;;;;;;;2.00;1.90;;;15.00;99.90;;;;;;5068148;28;20043;-73
2022/08/30 04:21:36;;;;;;;3.08;2.75;;;14.50;99.90;;;;;;5067864;28;20025;-72
2022/08/30 04:24:02;;;;;;;2.53;2.33;;;14.50;99.90;;;;;;5070048;28;20117;-71
2022/08/30 04:26:28;;;;;;;4.38;2.75;;;14.50;99.90;;;;;;5051242;28;20469;-72
2022/08/30 04:28:55;;;;;;;2.58;2.45;;;15.10;99.90;;;;;;5062950;28;20109;-72
2022/08/30 04:31:20;;;;;;;4.68;2.55;;;15.40;99.90;;;;;;5069020;28;20424;-72
2022/08/30 04:33:46;;;;;;;2.55;1.67;;;15.40;99.90;;;;;;5068169;28;20492;-71
2022/08/30 04:36:13;;;;;;;2.60;2.40;;;14.40;99.90;;;;;;5067308;28;20123;-71
2022/08/30 04:38:39;;;;;;;3.55;3.25;;;14.50;99.90;;;;;;5068236;28;20183;-71
2022/08/30 04:41:16;;;;;;;4.10;3.38;;;14.40;99.90;;;;;;5067445;28;20056;-71
2022/08/30 04:43:43;;;;;;;5.70;3.03;;;14.40;99.90;;;;;;5066836;28;20495;-71
2022/08/30 04:46:09;;;;;;;3.88;2.42;;;14.30;99.90;;;;;;5072804;28;20100;-72
2022/08/30 04:48:36;;;;;;;5.25;2.63;;;14.30;99.90;;;;;;5073335;28;20123;-71
2022/08/30 04:51:05;;;;;;;3.25;2.75;;;14.30;99.90;;;;;;5067288;28;20535;-73
2022/08/30 04:53:31;;;;;;;5.20;2.95;;;14.30;99.90;;;;;;5072790;28;20052;-72
2022/08/30 04:55:56;;;;;;;5.60;2.67;;;14.00;99.90;;;;;;5071313;28;20323;-71
2022/08/30 04:58:23;;;;;;;3.55;2.78;;;14.10;99.90;;;;;;5071746;28;20032;-72
2022/08/30 05:00:48;;;;;;;3.40;3.00;;;14.20;99.90;;;;;;5073172;28;20035;-71
2022/08/30 05:03:14;;;;;;;3.45;3.17;;;14.30;99.90;;;;;;5072449;28;20045;-72
2022/08/30 05:05:45;;;;;;;3.97;3.13;;;14.20;99.90;;;;;;5070553;28;20512;-71
2022/08/30 05:08:13;;;;;;;2.83;2.63;;;15.00;99.90;;;;;;5072385;28;20043;-71
2022/08/30 05:10:42;;;;;;;3.35;2.55;;;14.20;99.90;;;;;;5064628;28;20044;-71
2022/08/30 05:13:08;;;;;;;5.93;3.05;;;14.10;99.90;;;;;;5067837;28;20036;-71
2022/08/30 05:15:35;;;;;;;3.97;3.30;;;14.00;99.90;;;;;;5072383;28;20051;-72
2022/08/30 05:18:02;;;;;;;3.05;2.85;;;14.90;99.90;;;;;;5071980;28;20126;-72
2022/08/30 05:20:28;;;;;;;3.78;2.85;;;14.00;99.90;;;;;;5071954;28;20118;-72
2022/08/30 05:22:53;;;;;;;3.75;3.45;;;14.00;99.90;;;;;;5070988;28;20060;-72
2022/08/30 05:25:22;;;;;;;3.33;2.97;;;14.00;99.90;;;;;;5066979;28;20041;-71
2022/08/30 05:27:48;;;;;;;3.72;3.00;;;13.90;99.90;;;;;;5071863;28;20102;-71
2022/08/30 05:30:15;;;;;;;7.35;2.72;;;14.00;99.90;;;;;;5070757;28;20063;-73
2022/08/30 05:32:41;;;;;;;5.80;3.17;;;14.00;99.90;;;;;;5070611;28;20132;-72
2022/08/30 05:35:09;;;;;;;3.63;3.33;;;14.00;99.90;;;;;;5071431;28;20369;-72
2022/08/30 05:37:35;;;;;;;4.32;3.20;;;14.00;99.90;;;;;;5071958;28;20527;-72
2022/08/30 05:40:01;;;;;;;5.20;4.70;;;14.00;99.90;;;;;;5069982;28;20450;-72
2022/08/30 05:42:27;;;;;;;7.90;5.50;;;14.00;99.90;;;;;;5072111;28;20087;-72
2022/08/30 05:44:53;;;;;;;6.13;4.03;;;14.70;99.90;;;;;;5071805;28;20072;-72
2022/08/30 05:47:20;;;;;;;4.07;3.47;;;14.00;99.90;;;;;;5070696;28;20044;-72
2022/08/30 05:49:46;;;;;;;3.88;3.58;;;14.00;99.90;;;;;;5071941;28;20036;-72
2022/08/30 05:52:14;;;;;;;4.05;3.55;;;14.00;99.90;;;;;;5071471;28;20040;-72
2022/08/30 05:54:40;;;;;;;6.55;3.22;;;14.00;99.90;;;;;;5070494;28;20044;-71
2022/08/30 05:57:07;;;;;;;5.63;3.92;;;14.10;99.90;;;;;;5070014;28;20119;-72
2022/08/30 05:59:32;;;;;;;8.60;3.30;;;14.10;99.90;;;;;;5071626;28;20041;-72
2022/08/30 06:01:58;;;;;;;5.05;3.55;;;14.70;99.90;;;;;;5069821;28;20384;-71
2022/08/30 06:04:24;;;;;;;6.97;2.92;;;14.10;99.90;;;;;;5071034;28;20473;-71
2022/08/30 06:06:51;;;;;;;4.47;3.33;;;14.60;99.90;;;;;;5071048;28;20043;-71
2022/08/30 06:09:17;;;;;;;5.28;3.15;;;14.80;99.90;;;;;;5071231;28;20421;-71
2022/08/30 06:11:46;;;;;;;3.90;3.40;;;14.20;99.90;;;;;;5071377;28;20037;-71
2022/08/30 06:14:13;;;;;;;4.65;3.42;;;14.70;99.90;;;;;;5069797;28;20322;-71
2022/08/30 06:16:39;;;;;;;3.72;3.42;;;14.20;99.90;;;;;;5071504;28;20045;-72
2022/08/30 06:19:10;;;;;;;9.18;4.50;;;14.20;99.90;;;;;;5071491;28;20053;-71
2022/08/30 06:21:36;;;;;;;5.40;3.60;;;15.30;99.90;;;;;;5070484;28;20484;-72
2022/08/30 06:24:04;;;;;;;8.93;3.70;;;14.20;99.90;;;;;;5071032;28;20041;-72
2022/08/30 06:26:30;;;;;;;4.45;3.70;;;14.30;99.90;;;;;;5069193;28;20045;-72
2022/08/30 06:28:57;;;;;;;3.97;3.50;;;15.10;99.90;;;;;;5068862;28;20067;-72
2022/08/30 06:31:25;;;;;;;4.82;2.97;;;14.40;99.90;;;;;;5070843;28;20093;-72
2022/08/30 06:33:51;;;;;;;6.80;3.95;;;14.50;99.90;;;;;;5070894;28;20044;-72
2022/08/30 06:36:20;;;;;;;5.45;3.50;;;15.20;99.90;;;;;;5068588;28;20513;-72
2022/08/30 06:38:49;;;;;;;8.85;4.35;;;15.50;99.90;;;;;;5070890;28;20033;-72
2022/08/30 06:41:17;;;;;;;21.77;13.25;;;14.60;99.90;;;;;;5070861;28;20043;-71
2022/08/30 06:43:43;;;;;;;14.40;8.52;;;15.50;99.90;;;;;;5052102;28;20048;-72
2022/08/30 06:46:14;;;;;;;4.05;3.42;;;15.60;99.90;;;;;;5070490;28;20032;-72
2022/08/30 06:48:39;;;;;;;8.82;2.63;;;15.70;99.90;;;;;;5066589;28;20047;-72
2022/08/30 06:51:06;;;;;;;3.00;2.10;;;14.90;99.90;;;;;;5070132;28;20151;-71
2022/08/30 06:53:32;;;;;;;4.75;2.20;;;14.90;99.90;;;;;;5070457;28;20496;-71
2022/08/30 06:56:00;;;;;;;7.53;2.00;;;15.20;99.90;;;;;;5069179;28;20037;-71
2022/08/30 06:58:27;;;;;;;4.80;1.92;;;15.10;99.90;;;;;;5069402;28;20133;-72
2022/08/30 07:00:53;;;;;;;3.97;1.80;;;15.10;99.90;;;;;;5052595;28;20123;-71
2022/08/30 07:03:18;;;;;;;3.00;1.90;;;15.20;99.90;;;;;;5069553;28;20123;-72
2022/08/30 07:05:46;;;;;;;6.22;2.05;;;15.20;99.90;;;;;;5069712;28;20041;-72
2022/08/30 07:08:15;;;;;;;2.80;1.15;;;15.80;99.90;;;;;;5070630;28;20036;-72
2022/08/30 07:10:41;;;;;;;3.42;1.60;;;15.40;99.90;;;;;;5065381;28;20044;-72
2022/08/30 07:13:08;;;;;;;2.10;1.45;;;15.40;99.90;;;;;;5052154;28;20102;-72
2022/08/30 07:15:34;;;;;;;1.92;1.73;;;16.60;99.90;;;;;;5070229;28;20079;-72
2022/08/30 07:20:43;;;;;;;2.65;1.25;;;15.70;99.90;;;;;;5070198;28;20060;-72
2022/08/30 07:23:09;;;;;;;3.40;1.08;;;16.60;99.90;;;;;;5069930;28;20044;-71
2022/08/30 07:25:36;;;;;;;2.20;1.08;;;15.80;99.90;;;;;;5063488;28;20260;-72
2022/08/30 07:28:04;;;;;;;5.13;1.42;;;16.70;99.90;;;;;;5068934;28;20049;-72
2022/08/30 07:30:30;;;;;;;2.60;1.25;;;16.50;99.90;;;;;;5067111;28;20050;-72
2022/08/30 07:32:57;;;;;;;3.78;1.10;;;15.90;99.90;;;;;;5070373;28;20040;-72
2022/08/30 07:35:22;;;;;;;5.53;1.17;;;16.00;99.90;;;;;;5069558;28;20037;-72
2022/08/30 07:37:49;;;;;;;2.60;1.40;;;16.10;99.90;;;;;;5069368;28;20098;-73
2022/08/30 07:40:15;;;;;;;3.60;1.13;;;16.10;99.90;;;;;;5069431;28;20052;-73
2022/08/30 07:42:41;;;;;;;1.90;1.20;;;16.20;99.90;;;;;;5070251;28;20083;-73
2022/08/30 07:45:08;;;;;;;2.78;1.30;;;16.20;99.90;;;;;;5067609;28;20101;-72
2022/08/30 07:47:34;;;;;;;3.83;0.70;;;16.30;99.90;;;;;;5070068;28;20051;-72
2022/08/30 07:50:00;;;;;;;2.20;1.00;;;16.30;99.90;;;;;;5068599;28;20037;-73
2022/08/30 07:52:27;;;;;;;2.63;0.73;;;16.60;99.90;;;;;;5069365;28;20087;-73
2022/08/30 07:54:56;;;;;;;2.35;1.05;;;16.60;99.90;;;;;;5069398;28;20079;-73
2022/08/30 07:57:23;;;;;;;4.93;0.80;;;16.60;99.90;;;;;;5069847;28;20076;-73
2022/08/30 07:59:49;;;;;;;3.03;0.98;;;16.70;99.90;;;;;;5068083;28;20538;-73
2022/08/30 08:02:16;;;;;;;5.95;1.10;;;16.70;99.90;;;;;;5068530;28;20083;-73
2022/08/30 08:04:41;;;;;;;1.05;0.70;;;16.80;99.90;;;;;;5069318;28;20033;-72
2022/08/30 08:07:07;;;;;;;1.67;0.65;;;16.80;99.90;;;;;;5051938;28;20550;-72
2022/08/30 08:09:32;;;;;;;4.03;0.85;;;16.90;99.90;;;;;;5069416;28;20028;-71
2022/08/30 08:11:58;;;;;;;2.90;0.82;;;16.90;99.90;;;;;;5069490;28;20048;-72
2022/08/30 08:14:25;;;;;;;4.00;0.90;;;17.00;99.90;;;;;;5069125;28;20052;-71
2022/08/30 08:16:51;;;;;;;4.10;0.90;;;17.00;99.90;;;;;;5069658;28;20613;-71
2022/08/30 08:19:18;;;;;;;1.77;0.82;;;17.10;99.90;;;;;;5070803;28;20048;-72
2022/08/30 08:21:44;;;;;;;1.58;0.93;;;17.10;99.90;;;;;;5073603;28;20040;-72
2022/08/30 08:24:10;;;;;;;2.40;1.33;;;17.20;99.90;;;;;;5073057;28;20045;-72
2022/08/30 08:26:37;;;;;;;3.50;2.45;;;17.20;99.90;;;;;;5066009;28;20037;-71
2022/08/30 08:29:05;;;;;;;3.42;0.70;;;17.70;99.90;;;;;;5073143;28;20075;-72
2022/08/30 08:31:30;;;;;;;2.42;0.80;;;17.20;99.90;;;;;;5073571;28;20123;-72
2022/08/30 08:33:58;;;;;;;0.50;0.43;;;17.40;99.90;;;;;;5070920;28;20049;-71
2022/08/30 08:36:25;;;;;;;2.17;0.90;;;17.30;99.90;;;;;;5073178;28;20109;-72
2022/08/30 08:38:50;;;;;;;3.83;0.77;;;17.60;99.90;;;;;;5072814;28;20403;-72
2022/08/30 08:41:25;;;;;;;2.78;0.80;;;17.50;99.90;;;;;;5072364;28;20036;-72
2022/08/30 08:43:51;;;;;;;2.38;0.77;;;17.60;99.90;;;;;;5071757;28;20036;-72
2022/08/30 08:46:39;;;;;;;2.67;1.00;;;17.60;99.90;;;;;;5072577;28;20644;-72
2022/08/30 08:49:07;;;;;;;2.25;0.73;;;17.70;99.90;;;;;;5070371;28;20040;-71
2022/08/30 08:54:41;;;;;;;0.90;0.60;;;17.90;99.90;;;;;;5070139;28;20516;-72
2022/08/30 08:57:08;;;;;;;5.27;0.90;;;17.90;99.90;;;;;;5066949;28;20032;-71
2022/08/30 08:59:33;;;;;;;2.42;0.55;;;17.90;99.90;;;;;;5073096;28;20302;-72
2022/08/30 09:02:01;;;;;;;5.55;0.85;;;17.90;99.90;;;;;;5071028;28;20598;-72
2022/08/30 09:04:34;;;;;;;1.17;0.68;;;17.90;99.90;;;;;;5072381;28;20109;-72
2022/08/30 09:07:07;;;;;;;1.42;0.57;;;18.70;99.90;;;;;;5073227;28;20037;-72
2022/08/30 09:09:39;;;;;;;1.48;0.90;;;17.90;99.90;;;;;;5071906;28;20037;-72
2022/08/30 09:12:07;;;;;;;1.38;0.57;;;18.00;99.90;;;;;;5065118;28;20036;-73
2022/08/30 09:14:37;;;;;;;4.65;0.80;;;18.10;99.90;;;;;;5072581;28;20098;-73
2022/08/30 09:17:10;;;;;;;0.85;0.55;;;18.00;99.90;;;;;;5072077;28;20047;-72
2022/08/30 09:19:44;;;;;;;4.72;0.70;;;18.20;99.90;;;;;;5072542;28;20111;-73
2022/08/30 09:22:21;;;;;;;1.80;0.70;;;18.20;99.90;;;;;;5064394;28;20055;-73
2022/08/30 09:24:50;;;;;;;2.13;0.90;;;18.30;99.90;;;;;;5072435;28;20068;-73
2022/08/30 09:27:24;;;;;;;4.80;0.80;;;18.40;99.90;;;;;;5065389;28;20040;-73
2022/08/30 09:29:57;;;;;;;1.52;0.70;;;18.70;99.90;;;;;;5069566;28;20057;-72
2022/08/30 09:32:25;;;;;;;0.80;0.63;;;18.40;99.90;;;;;;5066315;28;20033;-73
2022/08/30 09:34:51;;;;;;;2.45;1.00;;;18.50;99.90;;;;;;5071854;28;20075;-73
2022/08/30 09:37:26;;;;;;;3.17;0.65;;;18.40;99.90;;;;;;5071028;28;20496;-73
2022/08/30 09:39:52;;;;;;;2.38;0.70;;;18.40;99.90;;;;;;5071761;28;20135;-73
2022/08/30 09:42:24;;;;;;;1.17;0.40;;;18.70;99.90;;;;;;5071861;28;20112;-72
2022/08/30 09:44:50;;;;;;;2.35;0.75;;;18.50;99.90;;;;;;5071293;28;20040;-72
2022/08/30 09:47:28;;;;;;;1.15;0.60;;;18.50;99.90;;;;;;5053949;28;20094;-72
2022/08/30 09:50:07;;;;;;;3.53;0.68;;;18.50;99.90;;;;;;5071698;28;20381;-71
2022/08/30 09:52:52;;;;;;;1.42;0.60;;;18.50;99.90;;;;;;5071620;28;20045;-72
2022/08/30 09:55:44;;;;;;;8.25;5.03;;;18.60;99.90;;;;;;5064667;28;20032;-71
2022/08/30 09:58:18;;;;;;;2.60;0.90;;;18.60;99.90;;;;;;5062945;28;20066;-71
2022/08/30 10:01:07;;;;;;;;;;;18.70;99.90;;;;;;5071807;28;20032;-71
2022/08/30 10:03:50;;;;;;;3.35;0.60;;;18.90;99.90;;;;;;5064611;28;19921;-71
2022/08/30 10:06:52;;;;;;;0.55;0.50;;;19.00;99.90;;;;;;5070263;28;20049;-71
2022/08/30 10:09:38;;;;;;;4.38;0.60;;;19.10;99.90;;;;;;5067379;28;20044;-71
2022/08/30 10:12:19;;;;;;;3.35;0.77;;;19.10;99.90;;;;;;5070793;28;20040;-72
2022/08/30 10:15:06;;;;;;;0.85;0.50;;;19.10;99.90;;;;;;5069782;28;20044;-71
2022/08/30 10:17:47;;;;;;;1.05;0.50;;;19.20;99.90;;;;;;5065718;28;20048;-71
2022/08/30 10:20:29;;;;;;;0.77;0.45;;;19.20;99.90;;;;;;5070567;28;20098;-72
2022/08/30 10:23:16;;;;;;;0.60;0.22;;;19.20;99.90;;;;;;5071439;28;20037;-72
2022/08/30 10:25:50;;;;;;;2.42;0.70;;;19.30;99.90;;;;;;5070135;28;20120;-72
2022/08/30 10:28:26;;;;;;;;;;;19.40;99.90;;;;;;5065947;28;20055;-72
2022/08/30 10:30:57;;;;;;;5.13;1.33;;;19.40;99.90;;;;;;5069862;28;20393;-72
2022/08/30 10:33:28;;;;;;;6.05;3.67;;;19.40;99.90;;;;;;5070158;28;20128;-71
2022/08/30 10:35:57;;;;;;;3.60;0.90;;;19.40;99.90;;;;;;5069421;28;20404;-72
2022/08/30 10:38:33;;;;;;;4.15;0.60;;;19.40;99.90;;;;;;5069539;28;20048;-72
2022/08/30 10:41:12;;;;;;;0.68;0.35;;;19.50;99.90;;;;;;5067706;28;20083;-72
2022/08/30 10:43:41;;;;;;;2.35;0.68;;;19.50;99.90;;;;;;5070737;28;20400;-72
2022/08/30 10:46:17;;;;;;;0.82;0.65;;;19.60;99.90;;;;;;5070021;28;20059;-71
2022/08/30 10:48:43;;;;;;;2.58;0.75;;;19.60;99.90;;;;;;5070058;28;20272;-72
2022/08/30 10:51:15;;;;;;;2.00;0.77;;;19.60;99.90;;;;;;5070357;28;20048;-72
2022/08/30 10:53:49;;;;;;;4.03;3.50;;;19.60;99.90;;;;;;5070102;28;20522;-72
2022/08/30 10:56:23;;;;;;;1.13;0.65;;;19.90;99.90;;;;;;5070432;28;20036;-73
2022/08/30 10:58:51;;;;;;;4.47;1.48;;;19.80;99.90;;;;;;5070574;28;20623;-72
2022/08/30 11:01:34;;;;;;;1.98;0.55;;;20.10;99.90;;;;;;5070250;28;20040;-72
2022/08/30 11:04:32;;;;;;;4.32;0.77;;;19.90;99.90;;;;;;5069928;28;20469;-72
2022/08/30 11:07:08;;;;;;;2.83;0.50;;;20.00;99.90;;;;;;5065091;28;20060;-72
2022/08/30 11:09:58;;;;;;;1.00;0.52;;;20.10;99.90;;;;;;5051590;28;20048;-72
2022/08/30 11:12:36;;;;;;;1.05;0.50;;;20.20;99.90;;;;;;5064291;28;20040;-72
2022/08/30 11:15:35;;;;;;;3.22;0.52;;;20.40;99.90;;;;;;5069491;28;20531;-72
2022/08/30 11:18:11;;;;;;;9.27;5.53;;;20.60;99.90;;;;;;5058008;28;20102;-72
2022/08/30 11:20:44;;;;;;;2.78;0.93;;;20.70;99.90;;;;;;5066269;28;20111;-72
2022/08/30 11:23:30;;;;;;;0.77;0.40;;;20.90;99.90;;;;;;5067250;28;20052;-72
2022/08/30 11:26:00;;;;;;;2.97;0.60;;;21.10;99.90;;;;;;5066294;28;20496;-72
2022/08/30 11:28:35;;;;;;;4.30;0.60;;;21.60;99.90;;;;;;5069961;28;20062;-72
2022/08/30 11:31:27;;;;;;;4.03;0.68;;;21.30;99.90;;;;;;5069939;28;20112;-72
2022/08/30 11:33:56;;;;;;;3.92;0.60;;;21.20;99.90;;;;;;5068850;28;20041;-72
2022/08/30 11:36:28;;;;;;;1.48;0.40;;;21.30;99.90;;;;;;5065489;28;20047;-72
2022/08/30 11:38:54;;;;;;;5.03;0.88;;;21.80;99.90;;;;;;5070052;28;20052;-72
2022/08/30 11:41:30;;;;;;;1.65;0.32;;;22.00;99.90;;;;;;5069713;28;20037;-72
2022/08/30 11:44:20;;;;;;;2.72;0.68;;;21.70;99.90;;;;;;5068911;28;20512;-73
2022/08/30 11:46:52;;;;;;;1.13;0.60;;;21.70;99.90;;;;;;5064499;28;20168;-72
2022/08/30 11:49:17;;;;;;;2.30;0.40;;;22.00;99.90;;;;;;5067860;28;20408;-72
2022/08/30 11:51:48;;;;;;;3.72;0.77;;;22.00;99.70;;;;;;5068772;28;20044;-72
2022/08/30 11:54:22;;;;;;;1.65;0.40;;;22.20;99.50;;;;;;5070833;28;20475;-72
2022/08/30 11:56:53;;;;;;;1.98;0.30;;;22.30;98.90;;;;;;5072341;28;20072;-72
2022/08/30 11:59:52;;;;;;;1.52;0.70;;;22.40;98.70;;;;;;5073889;28;20086;-72
2022/08/30 12:02:54;;;;;;;3.83;0.55;;;22.60;98.70;;;;;;5066431;28;20054;-72
2022/08/30 12:05:37;;;;;;;2.95;0.50;;;22.70;98.40;;;;;;5072449;28;20428;-72
2022/08/30 12:08:06;;;;;;;0.75;0.40;;;22.80;98.10;;;;;;5073877;28;20044;-72
2022/08/30 12:10:45;;;;;;;1.27;0.50;;;22.90;97.90;;;;;;5073722;28;20040;-72
2022/08/30 12:13:33;;;;;;;1.95;0.40;;;22.90;97.20;;;;;;5073235;28;20090;-71
2022/08/30 12:16:04;;;;;;;1.20;0.32;;;23.00;97.20;;;;;;5071855;28;20059;-72
2022/08/30 12:18:56;;;;;;;0.55;0.40;;;23.10;96.90;;;;;;5063991;28;20052;-72
2022/08/30 12:21:21;;;;;;;13.18;10.70;;;23.20;97.00;;;;;;5071307;28;20119;-72
2022/08/30 12:24:10;;;;;;;3.15;1.50;;;23.30;96.40;;;;;;5072268;28;20463;-72
2022/08/30 12:26:37;;;;;;;3.35;0.50;;;23.10;95.70;;;;;;5069399;28;20132;-72
2022/08/30 12:29:11;;;;;;;2.03;0.60;;;23.40;95.70;;;;;;5073097;28;20106;-73
2022/08/30 12:32:02;;;;;;;1.73;1.08;;;23.40;95.70;;;;;;5072128;28;20084;-73
2022/08/30 12:34:35;;;;;;;3.40;0.55;;;23.40;95.20;;;;;;5073132;28;20400;-72
2022/08/30 12:37:02;;;;;;;2.17;0.55;;;23.40;95.40;;;;;;5074362;28;20078;-72
2022/08/30 12:39:35;;;;;;;1.40;0.60;;;23.40;95.10;;;;;;5072064;28;20037;-72
2022/08/30 12:42:34;;;;;;;5.60;0.63;;;23.50;94.90;;;;;;5072228;28;20529;-72
2022/08/30 12:45:10;;;;;;;1.40;0.38;;;23.60;94.90;;;;;;5063881;28;20523;-72
2022/08/30 12:47:53;;;;;;;2.28;0.70;;;23.60;94.50;;;;;;5065758;28;20041;-72
2022/08/30 12:50:24;;;;;;;0.43;0.40;;;23.70;94.20;;;;;;5066279;28;20041;-72
2022/08/30 12:53:03;;;;;;;4.43;0.52;;;23.70;94.10;;;;;;5073208;28;20500;-72
2022/08/30 12:55:32;;;;;;;3.78;0.68;;;23.70;94.10;;;;;;5067404;28;20055;-72
2022/08/30 12:58:00;;;;;;;0.50;0.30;;;23.80;94.30;;;;;;5068007;28;20500;-73
2022/08/30 13:00:31;;;;;;;0.82;0.40;;;23.40;94.20;;;;;;5070906;28;20523;-73
2022/08/30 13:03:00;;;;;;;2.97;1.35;;;23.40;93.80;;;;;;5072158;28;20040;-73
2022/08/30 13:05:33;;;;;;;2.25;0.80;;;23.60;93.80;;;;;;5072026;28;20044;-73
2022/08/30 13:08:09;;;;;;;0.73;0.45;;;23.70;93.80;;;;;;5070970;28;20111;-73